Time;durP1;ratioP1;P1;durP2;ratioP2;P2;SDS_P1;SDS_P2;PMS_P1;PMS_P2;Temp;Humidity;BMP_temperature;BMP_pressure;BME280_temperature;BME280_humidity;BME280_pressure;Samples;Min_cycle;Max_cycle;Signal;HPM_P1;HPM_P2
2022/04/25 00:01:03;;;;;;;2.65;1.40;;;20.80;50.00;;;;;;4996183;28;20042;-55
2022/04/25 00:03:29;;;;;;;2.53;1.50;;;20.70;49.90;;;;;;4995452;28;20031;-55
2022/04/25 00:05:55;;;;;;;2.22;1.40;;;20.80;50.00;;;;;;4995594;28;20411;-55
2022/04/25 00:08:20;;;;;;;3.53;1.50;;;20.70;50.00;;;;;;4995962;28;20046;-55
2022/04/25 00:10:46;;;;;;;3.47;1.55;;;20.70;49.90;;;;;;4995044;28;20049;-55
2022/04/25 00:13:13;;;;;;;2.72;1.60;;;20.70;49.90;;;;;;4995851;28;20046;-55
2022/04/25 00:15:40;;;;;;;3.92;1.95;;;20.70;49.90;;;;;;4995550;28;20113;-56
2022/04/25 00:18:05;;;;;;;4.03;1.52;;;20.70;49.90;;;;;;4994892;28;20379;-55
2022/04/25 00:20:31;;;;;;;4.30;1.55;;;20.70;49.90;;;;;;4995605;28;20129;-55
2022/04/25 00:23:00;;;;;;;2.80;1.60;;;20.70;49.90;;;;;;4995292;28;20089;-55
2022/04/25 00:25:26;;;;;;;3.25;1.50;;;20.70;49.90;;;;;;4994652;28;20482;-55
2022/04/25 00:27:51;;;;;;;3.35;1.90;;;20.70;49.90;;;;;;4995268;28;20207;-55
2022/04/25 00:30:17;;;;;;;2.80;1.52;;;20.70;50.00;;;;;;4995307;28;20137;-55
2022/04/25 00:32:42;;;;;;;3.47;1.63;;;20.70;50.00;;;;;;4994645;28;20058;-55
2022/04/25 00:35:08;;;;;;;4.13;1.60;;;20.70;50.00;;;;;;4995683;28;20206;-56
2022/04/25 00:37:34;;;;;;;2.55;1.50;;;20.60;49.90;;;;;;4994767;28;20121;-56
2022/04/25 00:39:59;;;;;;;1.90;1.20;;;20.60;49.90;;;;;;4994927;28;20039;-55
2022/04/25 00:42:25;;;;;;;4.47;1.75;;;20.60;50.00;;;;;;4995336;28;20093;-55
2022/04/25 00:44:51;;;;;;;3.13;1.35;;;20.60;50.00;;;;;;4994460;28;20042;-56
2022/04/25 00:47:16;;;;;;;2.85;1.60;;;20.60;50.00;;;;;;4995275;28;20049;-56
2022/04/25 00:49:42;;;;;;;3.55;1.55;;;20.60;50.00;;;;;;4993676;28;20049;-56
2022/04/25 00:52:07;;;;;;;3.25;1.85;;;20.60;49.90;;;;;;4994433;28;20046;-56
2022/04/25 00:54:33;;;;;;;2.45;1.50;;;20.60;50.00;;;;;;4995161;28;20038;-56
2022/04/25 00:56:59;;;;;;;3.97;1.58;;;20.60;50.00;;;;;;4994700;28;20486;-56
2022/04/25 00:59:25;;;;;;;3.25;1.80;;;20.60;50.00;;;;;;4994366;28;20049;-56
2022/04/25 01:01:51;;;;;;;3.08;1.63;;;20.60;50.00;;;;;;4994485;28;20054;-56
2022/04/25 01:04:17;;;;;;;3.42;1.60;;;20.50;49.90;;;;;;4995093;28;20085;-56
2022/04/25 01:06:42;;;;;;;3.03;1.40;;;20.50;49.90;;;;;;4993522;28;20039;-56
2022/04/25 01:09:08;;;;;;;4.03;1.65;;;20.50;49.90;;;;;;4994942;28;20042;-56
2022/04/25 01:11:34;;;;;;;2.67;1.30;;;20.50;49.90;;;;;;4994836;28;20074;-56
2022/04/25 01:14:15;;;;;;;2.70;1.50;;;20.50;49.90;;;;;;4993707;28;20490;-56
2022/04/25 01:16:41;;;;;;;3.63;1.60;;;20.50;49.90;;;;;;4994419;28;20065;-56
2022/04/25 01:19:07;;;;;;;2.80;1.55;;;20.50;50.00;;;;;;4994760;28;20047;-56
2022/04/25 01:21:37;;;;;;;2.47;1.60;;;20.50;49.90;;;;;;4994005;28;20343;-55
2022/04/25 01:29:33;;;;;;;2.92;1.60;;;20.50;50.00;;;;;;4994384;28;20074;-56
2022/04/25 01:31:59;;;;;;;2.65;1.65;;;20.50;50.00;;;;;;4992595;28;20097;-56
2022/04/25 01:34:24;;;;;;;3.63;1.80;;;20.50;50.00;;;;;;4993686;28;20429;-55
2022/04/25 01:36:50;;;;;;;2.50;1.50;;;20.50;50.00;;;;;;4994067;28;20046;-56
2022/04/25 01:39:15;;;;;;;3.72;1.73;;;20.50;50.00;;;;;;4994067;28;20502;-56
2022/04/25 01:41:42;;;;;;;3.05;1.52;;;20.40;50.00;;;;;;4993349;28;20039;-56
2022/04/25 01:44:07;;;;;;;3.50;1.40;;;20.40;50.00;;;;;;4993893;28;20086;-56
2022/04/25 01:46:33;;;;;;;3.15;1.65;;;20.40;50.00;;;;;;4994031;28;20085;-55
2022/04/25 01:48:59;;;;;;;2.47;1.50;;;20.40;50.00;;;;;;4993225;28;20097;-55
2022/04/25 01:51:24;;;;;;;2.28;1.58;;;20.40;50.00;;;;;;4994207;28;20074;-55
2022/04/25 01:53:50;;;;;;;2.35;1.40;;;20.40;50.00;;;;;;4993928;28;20349;-55
2022/04/25 01:56:15;;;;;;;1.85;1.45;;;20.40;50.00;;;;;;4993384;28;20177;-55
2022/04/25 01:58:41;;;;;;;3.08;1.40;;;20.40;50.00;;;;;;4993383;28;20050;-56
2022/04/25 02:01:07;;;;;;;2.63;1.50;;;20.40;50.00;;;;;;4993139;28;20046;-55
2022/04/25 02:03:34;;;;;;;3.75;1.77;;;20.40;50.00;;;;;;4991778;28;20422;-55
2022/04/25 02:06:00;;;;;;;3.90;1.77;;;20.40;50.00;;;;;;4993301;28;20047;-55
2022/04/25 02:08:26;;;;;;;3.45;1.70;;;20.40;50.00;;;;;;4993641;28;20042;-55
2022/04/25 02:13:36;;;;;;;2.92;1.60;;;20.30;49.90;;;;;;4993916;28;20046;-55
2022/04/25 02:16:03;;;;;;;2.47;1.50;;;20.30;49.90;;;;;;4992511;28;20042;-55
2022/04/25 02:18:28;;;;;;;4.45;1.85;;;20.30;50.00;;;;;;4993650;28;20061;-55
2022/04/25 02:20:54;;;;;;;2.85;1.52;;;20.30;50.10;;;;;;4993264;28;20046;-55
2022/04/25 02:23:19;;;;;;;2.88;1.65;;;20.30;50.00;;;;;;4992742;28;20045;-55
2022/04/25 02:25:45;;;;;;;2.88;2.10;;;20.30;50.00;;;;;;4992944;28;20548;-55
2022/04/25 02:28:10;;;;;;;3.25;1.70;;;20.30;50.00;;;;;;4993573;28;20050;-55
2022/04/25 02:30:36;;;;;;;3.05;1.58;;;20.30;50.00;;;;;;4992800;28;20367;-55
2022/04/25 02:33:01;;;;;;;2.85;1.90;;;20.30;50.00;;;;;;4992693;28;20061;-55
2022/04/25 02:35:27;;;;;;;2.85;1.60;;;20.30;50.00;;;;;;4993233;28;20105;-55
2022/04/25 02:37:52;;;;;;;3.30;2.05;;;20.30;50.00;;;;;;4992320;28;20043;-55
2022/04/25 02:40:18;;;;;;;2.67;1.50;;;20.30;50.00;;;;;;4993060;28;20047;-55
2022/04/25 02:42:43;;;;;;;3.83;1.80;;;20.30;50.00;;;;;;4993077;28;20520;-56
2022/04/25 02:45:11;;;;;;;3.13;1.70;;;20.30;50.00;;;;;;4992156;28;20085;-56
2022/04/25 02:47:36;;;;;;;3.50;1.63;;;20.30;49.90;;;;;;4992804;28;20486;-55
2022/04/25 02:50:02;;;;;;;2.58;1.60;;;20.30;49.90;;;;;;4993045;28;20050;-55
2022/04/25 02:52:28;;;;;;;3.70;1.88;;;20.40;50.00;;;;;;4992614;28;20053;-56
2022/04/25 02:54:53;;;;;;;3.22;1.85;;;20.40;50.10;;;;;;4992764;28;20034;-55
2022/04/25 02:57:19;;;;;;;3.03;1.60;;;20.40;50.10;;;;;;4992879;28;20069;-55
2022/04/25 02:59:45;;;;;;;3.00;1.50;;;20.40;50.10;;;;;;4992212;28;20563;-55
2022/04/25 03:02:10;;;;;;;3.40;1.70;;;20.40;50.10;;;;;;4993135;28;20078;-56
2022/04/25 03:04:36;;;;;;;3.35;1.52;;;20.40;50.20;;;;;;4993248;28;20078;-56
2022/04/25 03:07:02;;;;;;;2.97;1.60;;;20.40;50.20;;;;;;4991825;28;20379;-56
2022/04/25 03:09:28;;;;;;;3.88;1.50;;;20.40;50.10;;;;;;4993006;28;20053;-56
2022/04/25 03:11:54;;;;;;;2.58;1.67;;;20.40;50.10;;;;;;4992894;28;20042;-56
2022/04/25 03:14:19;;;;;;;2.63;1.58;;;20.40;50.10;;;;;;4992253;28;20046;-56
2022/04/25 03:16:45;;;;;;;4.03;1.55;;;20.40;50.20;;;;;;4992570;28;20078;-55
2022/04/25 03:19:10;;;;;;;2.92;1.50;;;20.40;50.20;;;;;;4992195;28;20043;-55
2022/04/25 03:21:36;;;;;;;2.78;1.55;;;20.40;50.20;;;;;;4993090;28;20042;-56
2022/04/25 03:24:02;;;;;;;3.28;1.65;;;20.50;50.30;;;;;;4992712;28;20126;-56
2022/04/25 03:26:29;;;;;;;4.65;1.88;;;20.40;50.20;;;;;;4992303;28;20061;-55
2022/04/25 03:28:54;;;;;;;3.00;1.50;;;20.50;50.30;;;;;;4992583;28;20050;-56
2022/04/25 03:31:20;;;;;;;2.60;1.40;;;20.50;50.40;;;;;;4992848;28;20395;-55
2022/04/25 03:33:45;;;;;;;3.22;1.70;;;20.50;50.30;;;;;;4991456;28;20050;-55
2022/04/25 03:36:11;;;;;;;3.13;1.50;;;20.50;50.30;;;;;;4992754;28;20047;-56
2022/04/25 03:38:36;;;;;;;3.20;1.90;;;20.50;50.30;;;;;;4992581;28;20414;-55
2022/04/25 03:41:02;;;;;;;2.92;1.55;;;20.50;50.40;;;;;;4991813;28;20041;-56
2022/04/25 03:43:28;;;;;;;3.50;2.08;;;20.50;50.30;;;;;;4992928;28;20050;-56
2022/04/25 03:45:55;;;;;;;2.60;1.40;;;20.50;50.40;;;;;;4992438;28;20050;-55
2022/04/25 03:48:20;;;;;;;3.38;1.70;;;20.50;50.30;;;;;;4994558;28;20064;-56
2022/04/25 03:50:46;;;;;;;2.78;1.75;;;20.50;50.30;;;;;;4995856;28;20125;-55
2022/04/25 03:53:12;;;;;;;2.80;1.67;;;20.50;50.30;;;;;;4996323;28;20130;-55
2022/04/25 03:58:22;;;;;;;3.63;1.73;;;20.60;50.30;;;;;;4996368;28;20046;-55
2022/04/25 04:00:48;;;;;;;3.97;1.85;;;20.50;50.40;;;;;;4995537;28;20038;-55
2022/04/25 04:03:15;;;;;;;4.18;1.90;;;20.60;50.30;;;;;;4995064;28;20051;-55
2022/04/25 04:05:42;;;;;;;4.20;1.75;;;20.60;50.30;;;;;;4994965;28;20046;-56
2022/04/25 04:08:08;;;;;;;2.40;1.50;;;20.60;50.30;;;;;;4995234;28;20445;-56
2022/04/25 04:10:33;;;;;;;3.33;1.50;;;20.50;50.30;;;;;;4995086;28;20078;-56
2022/04/25 04:13:00;;;;;;;3.17;1.42;;;20.60;50.40;;;;;;4995668;28;20074;-56
2022/04/25 04:15:26;;;;;;;4.55;1.70;;;20.60;50.40;;;;;;4995000;28;20050;-55
2022/04/25 04:17:51;;;;;;;2.97;1.85;;;20.60;50.40;;;;;;4995618;28;20054;-56
2022/04/25 04:20:17;;;;;;;2.90;1.70;;;20.60;50.40;;;;;;4995939;28;20512;-56
2022/04/25 04:22:42;;;;;;;2.95;1.52;;;20.60;50.40;;;;;;4994729;28;20042;-55
2022/04/25 04:25:11;;;;;;;2.55;1.58;;;20.60;50.40;;;;;;4995731;28;20042;-55
2022/04/25 04:27:37;;;;;;;3.63;1.65;;;20.60;50.40;;;;;;4995745;28;20129;-55
2022/04/25 04:30:07;;;;;;;3.40;1.70;;;20.60;50.40;;;;;;4994774;28;20129;-55
2022/04/25 04:32:33;;;;;;;3.72;1.65;;;20.60;50.40;;;;;;4995175;28;20066;-55
2022/04/25 04:34:59;;;;;;;2.92;1.52;;;20.60;50.40;;;;;;4995045;28;20061;-55
2022/04/25 04:37:25;;;;;;;3.60;1.67;;;20.60;50.50;;;;;;4994627;28;20049;-55
2022/04/25 04:40:28;;;;;;;2.22;1.42;;;20.60;50.40;;;;;;4995312;28;20034;-55
2022/04/25 04:42:40;;;;;;;1.90;1.35;;;20.60;50.40;;;;;;4994923;28;20046;-55
2022/04/25 04:45:05;;;;;;;3.65;1.75;;;20.60;50.40;;;;;;4994727;28;20038;-55
2022/04/25 04:47:35;;;;;;;2.38;1.63;;;20.60;50.40;;;;;;4995146;28;20042;-55
2022/04/25 04:50:00;;;;;;;3.13;1.80;;;20.60;50.40;;;;;;4995188;28;20046;-56
2022/04/25 04:52:26;;;;;;;3.83;1.52;;;20.60;50.40;;;;;;4994664;28;20046;-56
2022/04/25 04:54:51;;;;;;;3.88;1.70;;;20.60;50.40;;;;;;4994934;28;20046;-56
2022/04/25 04:57:17;;;;;;;1.80;1.30;;;20.60;50.40;;;;;;4995043;28;20039;-55
2022/04/25 04:59:42;;;;;;;3.13;1.60;;;20.70;50.40;;;;;;4992738;28;20450;-55
2022/04/25 05:02:09;;;;;;;3.17;2.00;;;20.60;50.40;;;;;;4994807;28;20092;-55
2022/04/25 05:04:34;;;;;;;3.25;1.70;;;20.70;50.40;;;;;;4994901;28;20046;-55
2022/04/25 05:07:00;;;;;;;2.67;1.60;;;20.70;50.40;;;;;;4994383;28;20046;-55
2022/04/25 05:09:25;;;;;;;4.55;1.70;;;20.60;50.40;;;;;;4995130;28;20402;-56
2022/04/25 05:11:51;;;;;;;3.10;1.73;;;20.70;50.40;;;;;;4993952;28;20042;-55
2022/04/25 05:14:16;;;;;;;3.90;1.92;;;20.70;50.40;;;;;;4994766;28;20058;-55
2022/04/25 05:16:42;;;;;;;2.80;1.42;;;20.70;50.40;;;;;;4993913;28;20090;-55
2022/04/25 05:19:08;;;;;;;3.03;1.73;;;20.70;50.30;;;;;;4994250;28;20049;-55
2022/04/25 05:21:33;;;;;;;3.92;1.70;;;20.70;50.40;;;;;;4994873;28;20042;-55
2022/04/25 05:23:59;;;;;;;3.15;1.85;;;20.70;50.30;;;;;;4994548;28;20053;-55
2022/04/25 05:26:25;;;;;;;4.50;1.85;;;20.70;50.40;;;;;;4993841;28;20406;-55
2022/04/25 05:28:51;;;;;;;7.43;2.05;;;20.70;50.60;;;;;;4994405;28;20049;-55
2022/04/25 05:31:16;;;;;;;4.80;1.55;;;20.70;50.60;;;;;;4993430;28;20042;-55
2022/04/25 05:33:42;;;;;;;3.53;1.90;;;20.70;50.50;;;;;;4992801;28;20129;-56
2022/04/25 05:36:07;;;;;;;5.32;1.60;;;20.70;50.50;;;;;;4994233;28;20390;-55
2022/04/25 05:38:33;;;;;;;3.75;1.60;;;20.80;50.70;;;;;;4994401;28;20509;-56
2022/04/25 05:40:58;;;;;;;1.95;1.45;;;20.80;50.70;;;;;;4990699;28;20042;-56
2022/04/25 05:43:24;;;;;;;3.95;1.80;;;20.70;50.70;;;;;;4965926;28;20057;-55
2022/04/25 05:45:49;;;;;;;2.92;1.55;;;20.80;50.80;;;;;;4973085;28;20039;-55
2022/04/25 05:53:43;;;;;;;2.85;1.50;;;20.80;50.90;;;;;;4973186;28;20055;-55
2022/04/25 05:56:09;;;;;;;4.68;1.40;;;20.80;50.90;;;;;;4974094;28;20050;-55
2022/04/25 05:58:34;;;;;;;4.03;1.83;;;20.80;51.00;;;;;;4974649;28;20046;-55
2022/04/25 06:01:00;;;;;;;2.90;1.48;;;20.80;51.00;;;;;;4973599;28;20055;-56
2022/04/25 06:03:25;;;;;;;3.92;1.73;;;20.80;51.10;;;;;;4974589;28;20049;-56
2022/04/25 06:05:54;;;;;;;4.63;1.75;;;20.80;51.30;;;;;;4974354;28;20057;-56
2022/04/25 06:08:19;;;;;;;2.95;1.75;;;20.80;51.40;;;;;;4973443;28;20105;-56
2022/04/25 06:10:45;;;;;;;5.57;1.92;;;20.90;51.60;;;;;;4973717;28;20042;-57
2022/04/25 06:13:10;;;;;;;3.80;1.70;;;20.90;51.60;;;;;;4974625;28;20467;-56
2022/04/25 06:15:36;;;;;;;7.20;1.60;;;20.90;51.80;;;;;;4973707;28;20133;-56
2022/04/25 06:18:02;;;;;;;3.13;1.65;;;20.90;51.90;;;;;;4974049;28;20043;-56
2022/04/25 06:20:30;;;;;;;3.63;1.63;;;20.90;51.90;;;;;;4974383;28;20513;-56
2022/04/25 06:22:56;;;;;;;;;;;20.90;52.00;;;;;;4973762;28;20486;-56
2022/04/25 06:25:23;;;;;;;3.60;1.58;;;20.90;52.00;;;;;;4977240;28;19926;-55
2022/04/25 06:27:49;;;;;;;2.55;1.60;;;20.90;51.90;;;;;;4985667;28;20043;-57
2022/04/25 06:30:14;;;;;;;3.92;1.67;;;21.00;52.00;;;;;;4992755;28;20046;-56
2022/04/25 06:32:40;;;;;;;3.53;1.40;;;20.90;52.10;;;;;;4992824;28;20054;-56
2022/04/25 06:35:07;;;;;;;3.90;1.63;;;21.00;52.20;;;;;;4993206;28;20394;-56
2022/04/25 06:37:33;;;;;;;3.97;1.45;;;21.00;52.20;;;;;;4992676;28;20057;-56
2022/04/25 06:39:58;;;;;;;4.78;1.58;;;21.00;52.20;;;;;;4993017;28;20047;-55
2022/04/25 06:42:25;;;;;;;3.38;1.50;;;21.00;52.30;;;;;;4993388;28;20050;-55
2022/04/25 06:44:51;;;;;;;6.13;1.50;;;21.00;52.40;;;;;;4992207;28;20039;-55
2022/04/25 06:47:17;;;;;;;2.53;1.73;;;21.00;52.40;;;;;;4993305;28;20096;-55
2022/04/25 06:49:42;;;;;;;3.03;1.83;;;21.00;52.50;;;;;;4992884;28;20038;-55
2022/04/25 06:52:09;;;;;;;4.50;1.70;;;21.00;52.50;;;;;;4992262;28;20053;-56
2022/04/25 06:54:35;;;;;;;5.30;1.60;;;21.00;52.50;;;;;;4993073;28;20054;-55
2022/04/25 06:57:01;;;;;;;4.20;1.73;;;21.10;52.60;;;;;;4992883;28;20057;-55
2022/04/25 06:59:27;;;;;;;4.68;1.70;;;21.10;52.70;;;;;;4992472;28;20042;-55
2022/04/25 07:01:53;;;;;;;4.70;1.70;;;21.10;52.70;;;;;;4991845;28;20043;-56
2022/04/25 07:04:19;;;;;;;4.40;1.70;;;21.10;52.70;;;;;;4992513;28;20040;-56
2022/04/25 07:06:45;;;;;;;2.47;1.45;;;21.10;52.70;;;;;;4993013;28;20051;-56
2022/04/25 07:09:14;;;;;;;3.60;1.63;;;21.10;52.80;;;;;;4993019;28;20136;-56
2022/04/25 07:11:43;;;;;;;3.17;1.60;;;21.10;52.80;;;;;;4991323;28;20049;-55
2022/04/25 07:14:16;;;;;;;5.80;1.73;;;21.10;52.70;;;;;;4982803;28;20129;-55
2022/04/25 07:16:44;;;;;;;4.53;1.60;;;21.10;52.70;;;;;;4973139;28;20133;-56
2022/04/25 07:19:11;;;;;;;4.07;1.60;;;21.10;52.70;;;;;;4972785;28;20046;-55
2022/04/25 07:29:49;;;;;;;2.15;1.45;;;21.20;52.90;;;;;;4977023;28;20070;-55
2022/04/25 07:32:15;;;;;;;4.10;1.55;;;21.20;52.90;;;;;;4976412;28;20510;-56
2022/04/25 07:34:41;;;;;;;4.40;1.90;;;21.20;52.80;;;;;;4973925;28;20051;-55
2022/04/25 07:37:07;;;;;;;3.17;1.55;;;21.10;52.80;;;;;;4976118;28;20058;-55
2022/04/25 07:39:32;;;;;;;3.35;2.08;;;21.20;52.90;;;;;;4975015;28;20042;-56
2022/04/25 07:41:58;;;;;;;5.82;1.67;;;21.20;52.80;;;;;;4975717;28;20082;-54
2022/04/25 07:44:26;;;;;;;8.23;1.92;;;21.20;52.70;;;;;;4975229;28;20047;-55
2022/04/25 07:46:51;;;;;;;3.30;1.57;;;21.20;52.60;;;;;;4973440;28;20050;-55
2022/04/25 07:49:17;;;;;;;3.72;1.85;;;21.20;52.50;;;;;;4973664;28;20321;-55
2022/04/25 07:51:42;;;;;;;3.08;1.75;;;21.20;52.70;;;;;;4973624;28;20078;-55
2022/04/25 07:54:09;;;;;;;4.15;1.67;;;21.20;52.70;;;;;;4972359;28;20046;-56
2022/04/25 07:56:38;;;;;;;5.03;1.98;;;21.20;52.60;;;;;;4972318;28;20049;-56
2022/04/25 07:59:05;;;;;;;8.57;2.10;;;21.20;52.50;;;;;;4972270;28;20050;-56
2022/04/25 08:01:31;;;;;;;4.63;2.05;;;21.20;52.50;;;;;;4973678;28;20225;-56
2022/04/25 08:03:57;;;;;;;3.45;1.52;;;21.20;52.50;;;;;;4975392;28;20133;-55
2022/04/25 08:06:22;;;;;;;3.30;1.80;;;21.20;52.40;;;;;;4974487;28;20054;-56
2022/04/25 08:08:49;;;;;;;5.47;2.05;;;21.20;52.40;;;;;;4974694;28;20134;-56
2022/04/25 08:11:14;;;;;;;3.85;1.85;;;21.20;52.30;;;;;;4983387;28;20474;-57
2022/04/25 08:19:08;;;;;;;3.20;1.80;;;21.20;52.20;;;;;;4975282;28;20133;-57
2022/04/25 08:21:33;;;;;;;3.63;1.90;;;21.20;52.20;;;;;;4974708;28;20082;-56
2022/04/25 08:23:59;;;;;;;3.33;1.70;;;21.20;52.20;;;;;;4974591;28;20062;-56
2022/04/25 08:26:26;;;;;;;3.45;2.00;;;21.20;52.30;;;;;;4975348;28;20051;-56
2022/04/25 08:28:52;;;;;;;4.20;1.95;;;21.20;52.40;;;;;;4974219;28;20050;-56
2022/04/25 08:31:17;;;;;;;3.60;2.30;;;21.30;52.60;;;;;;4977598;28;20376;-55
2022/04/25 08:33:43;;;;;;;6.28;2.10;;;21.30;52.70;;;;;;4987372;28;86847;-56
2022/04/25 08:36:09;;;;;;;4.20;2.28;;;21.30;52.70;;;;;;4975626;28;20050;-55
2022/04/25 08:38:34;;;;;;;3.88;1.85;;;21.30;52.60;;;;;;4975958;28;20050;-55
2022/04/25 08:41:00;;;;;;;3.75;2.10;;;21.30;52.60;;;;;;4975679;28;20047;-56
2022/04/25 08:43:26;;;;;;;4.30;2.03;;;21.30;52.70;;;;;;4958201;28;20512;-57
2022/04/25 08:45:51;;;;;;;4.38;2.08;;;21.30;52.70;;;;;;4974745;28;20051;-56
2022/04/25 08:48:17;;;;;;;5.00;2.00;;;21.30;52.60;;;;;;4958088;28;20046;-56
2022/04/25 08:50:44;;;;;;;3.72;2.10;;;21.30;52.60;;;;;;4974432;28;20049;-56
2022/04/25 08:53:09;;;;;;;4.30;1.90;;;21.30;52.60;;;;;;4976036;28;20102;-56
2022/04/25 08:55:35;;;;;;;3.38;1.90;;;21.30;52.50;;;;;;4974532;28;20047;-56
2022/04/25 08:58:00;;;;;;;4.50;2.30;;;21.30;52.50;;;;;;4974855;28;20054;-56
2022/04/25 09:00:26;;;;;;;5.85;2.50;;;21.30;52.70;;;;;;4975790;28;20034;-56
2022/04/25 09:02:52;;;;;;;6.75;2.40;;;21.30;52.70;;;;;;4975450;28;20042;-56
2022/04/25 09:05:17;;;;;;;5.25;2.70;;;21.30;52.70;;;;;;4975050;28;20041;-56
2022/04/25 09:07:43;;;;;;;6.93;2.80;;;21.30;52.80;;;;;;4974914;28;20046;-56
2022/04/25 09:10:13;;;;;;;6.85;2.92;;;21.30;52.80;;;;;;4975693;28;20039;-57
2022/04/25 09:12:41;;;;;;;5.18;2.80;;;21.30;52.70;;;;;;4974596;28;20043;-56
2022/04/25 09:15:08;;;;;;;6.18;3.10;;;21.40;52.70;;;;;;4975510;28;20039;-56
2022/04/25 09:17:34;;;;;;;6.10;2.92;;;21.40;52.80;;;;;;4975324;28;20047;-55
2022/04/25 09:19:59;;;;;;;6.68;3.05;;;21.40;52.90;;;;;;4974533;28;20054;-56
2022/04/25 09:22:32;;;;;;;7.53;2.80;;;21.40;53.00;;;;;;4975085;28;20061;-55
2022/04/25 09:25:11;;;;;;;6.97;2.90;;;21.40;53.00;;;;;;4979306;28;20045;-56
2022/04/25 09:27:37;;;;;;;6.85;3.10;;;21.40;53.00;;;;;;4993177;28;20053;-56
2022/04/25 09:30:20;;;;;;;6.13;3.25;;;21.40;53.00;;;;;;4994504;28;20049;-56
2022/04/25 09:32:46;;;;;;;6.63;2.97;;;21.40;53.00;;;;;;4993073;28;20050;-56
2022/04/25 09:35:37;;;;;;;6.60;2.85;;;21.40;53.00;;;;;;4994866;28;20077;-57
2022/04/25 09:38:04;;;;;;;6.53;3.25;;;21.40;52.80;;;;;;4993299;28;20046;-56
2022/04/25 09:40:32;;;;;;;6.32;2.88;;;21.40;52.90;;;;;;4993422;28;20498;-56
2022/04/25 09:43:04;;;;;;;6.03;2.97;;;21.40;52.80;;;;;;4993817;28;20379;-57
2022/04/25 09:45:31;;;;;;;7.50;3.42;;;21.40;52.70;;;;;;4993497;28;20045;-56
2022/04/25 09:47:57;;;;;;;5.68;2.70;;;21.40;52.80;;;;;;4993080;28;20092;-56
2022/04/25 09:50:27;;;;;;;6.95;3.15;;;21.40;52.70;;;;;;4994354;28;20057;-56
2022/04/25 09:52:54;;;;;;;6.82;3.22;;;21.40;52.70;;;;;;4993846;28;20053;-56
2022/04/25 09:55:20;;;;;;;5.55;2.80;;;21.40;52.70;;;;;;4993350;28;20053;-56
2022/04/25 09:57:47;;;;;;;6.40;2.88;;;21.40;52.70;;;;;;4993651;28;20049;-56
2022/04/25 10:00:14;;;;;;;7.07;2.75;;;21.40;52.80;;;;;;4993447;28;20050;-56
2022/04/25 10:02:40;;;;;;;6.35;3.08;;;21.40;52.70;;;;;;4992501;28;20038;-56
2022/04/25 10:05:15;;;;;;;6.50;3.13;;;21.40;52.60;;;;;;4994020;28;20046;-56
2022/04/25 10:07:41;;;;;;;5.70;2.90;;;21.40;52.40;;;;;;4992913;28;20169;-56
2022/04/25 10:10:09;;;;;;;6.63;3.08;;;21.40;52.50;;;;;;4994009;28;20072;-56
2022/04/25 10:12:36;;;;;;;7.10;3.45;;;21.30;52.40;;;;;;4993654;28;20048;-56
2022/04/25 10:15:05;;;;;;;4.47;2.65;;;21.40;52.40;;;;;;4992955;28;20050;-56
2022/04/25 10:17:31;;;;;;;7.47;3.03;;;21.40;52.40;;;;;;4993624;28;20038;-57
2022/04/25 10:20:01;;;;;;;5.15;2.92;;;21.30;52.40;;;;;;4991273;28;20042;-57
2022/04/25 10:22:26;;;;;;;6.22;3.22;;;21.40;52.30;;;;;;4990974;28;20048;-57
2022/04/25 10:24:52;;;;;;;6.65;3.33;;;21.30;52.20;;;;;;4992639;28;20054;-56
2022/04/25 10:27:18;;;;;;;6.00;3.17;;;21.30;52.10;;;;;;4993200;28;20434;-56
2022/04/25 10:29:49;;;;;;;6.72;3.33;;;21.30;52.90;;;;;;4975179;28;20085;-56
2022/04/25 10:32:19;;;;;;;11.50;3.22;;;21.30;52.20;;;;;;4976216;28;20112;-56
2022/04/25 10:35:05;;;;;;;5.43;2.72;;;21.30;52.20;;;;;;4976306;28;20112;-56
2022/04/25 10:37:31;;;;;;;6.90;2.90;;;21.30;52.10;;;;;;4992621;28;20061;-56
2022/04/25 10:39:57;;;;;;;6.07;2.83;;;21.30;52.10;;;;;;4992422;28;20414;-57
2022/04/25 10:45:07;;;;;;;5.55;2.95;;;21.30;52.10;;;;;;4993565;28;20050;-56
2022/04/25 10:47:32;;;;;;;7.00;2.85;;;21.30;52.20;;;;;;4993584;28;20054;-56
2022/04/25 10:49:59;;;;;;;6.18;2.90;;;21.30;52.10;;;;;;4992449;28;20403;-56
2022/04/25 10:52:37;;;;;;;6.60;3.10;;;21.30;52.10;;;;;;4993519;28;20050;-56
2022/04/25 10:55:13;;;;;;;6.70;3.20;;;21.30;52.10;;;;;;4993242;28;20057;-56
2022/04/25 10:58:01;;;;;;;4.80;2.63;;;21.30;52.20;;;;;;4991377;28;20054;-56
2022/04/25 11:00:41;;;;;;;6.82;3.15;;;21.20;52.00;;;;;;4992957;28;20078;-56
2022/04/25 11:03:11;;;;;;;5.70;3.10;;;21.20;52.10;;;;;;4993132;28;20046;-56
2022/04/25 11:05:43;;;;;;;6.55;3.13;;;21.20;52.10;;;;;;4992570;28;20043;-56
2022/04/25 11:08:18;;;;;;;5.47;2.70;;;21.20;52.10;;;;;;4993241;28;20047;-56
2022/04/25 11:10:51;;;;;;;5.07;2.65;;;21.20;52.00;;;;;;4992134;28;20065;-56
2022/04/25 11:13:18;;;;;;;4.80;2.90;;;21.20;52.10;;;;;;4992015;28;20042;-56
2022/04/25 11:15:48;;;;;;;5.35;2.55;;;21.20;52.10;;;;;;4991559;28;20042;-56
2022/04/25 11:18:28;;;;;;;5.35;2.50;;;21.10;52.00;;;;;;4992308;28;20105;-56
2022/04/25 11:20:57;;;;;;;6.68;2.50;;;21.20;52.10;;;;;;4992702;28;20375;-57
2022/04/25 11:23:26;;;;;;;4.90;2.75;;;21.10;52.00;;;;;;4992803;28;20054;-56
2022/04/25 11:25:53;;;;;;;5.63;2.72;;;21.20;52.00;;;;;;4991496;28;20072;-56
2022/04/25 11:28:19;;;;;;;4.57;2.80;;;21.20;52.00;;;;;;4992690;28;20061;-56
2022/04/25 11:30:44;;;;;;;5.43;3.00;;;21.10;51.90;;;;;;4992603;28;20479;-56
2022/04/25 11:33:12;;;;;;;4.50;2.63;;;21.20;52.00;;;;;;4991788;28;20054;-57
2022/04/25 11:35:39;;;;;;;4.90;2.70;;;21.10;52.00;;;;;;4992845;28;20156;-57
2022/04/25 11:38:05;;;;;;;5.20;2.28;;;21.10;52.00;;;;;;4993047;28;20044;-57
2022/04/25 11:40:30;;;;;;;4.00;2.47;;;21.20;52.10;;;;;;4991621;28;20386;-57
2022/04/25 11:42:56;;;;;;;4.85;2.70;;;21.10;51.90;;;;;;4992764;28;20798;-57
2022/04/25 11:45:21;;;;;;;5.88;2.80;;;21.10;51.90;;;;;;4992904;28;20050;-57
2022/04/25 11:47:47;;;;;;;5.50;2.75;;;21.10;52.00;;;;;;4991433;28;20051;-56
2022/04/25 11:50:12;;;;;;;4.97;2.80;;;21.10;52.00;;;;;;4992914;28;20096;-57
2022/04/25 11:52:48;;;;;;;4.63;2.67;;;21.10;52.00;;;;;;4992113;28;20137;-57
2022/04/25 11:55:15;;;;;;;3.83;2.35;;;21.10;52.00;;;;;;4992552;28;20394;-57
2022/04/25 11:57:42;;;;;;;4.65;2.55;;;21.10;52.00;;;;;;4992494;28;20052;-57
2022/04/25 12:00:13;;;;;;;4.63;2.38;;;21.10;52.00;;;;;;4991947;28;20046;-57
2022/04/25 12:02:39;;;;;;;4.35;2.33;;;21.10;52.00;;;;;;4992692;28;20053;-57
2022/04/25 12:05:07;;;;;;;4.47;2.58;;;21.10;52.00;;;;;;4992193;28;20043;-57
2022/04/25 12:07:33;;;;;;;4.20;2.30;;;21.10;51.90;;;;;;4991613;28;20049;-57
2022/04/25 12:15:38;;;;;;;3.88;2.15;;;21.10;52.00;;;;;;4980488;28;20069;-57
2022/04/25 12:18:17;;;;;;;4.78;2.80;;;21.10;52.00;;;;;;4995694;28;20058;-56
2022/04/25 12:21:04;;;;;;;4.70;2.25;;;21.10;52.00;;;;;;4975652;28;20050;-56
2022/04/25 12:23:34;;;;;;;4.93;2.63;;;21.10;52.10;;;;;;4982959;28;20056;-56
2022/04/25 12:26:03;;;;;;;4.93;2.75;;;21.10;52.10;;;;;;4996019;28;20137;-57
2022/04/25 12:28:30;;;;;;;5.32;2.80;;;21.10;52.10;;;;;;4995207;28;20042;-57
2022/04/25 12:31:06;;;;;;;4.63;2.25;;;21.10;52.10;;;;;;4995673;28;20085;-57
2022/04/25 12:33:39;;;;;;;4.22;2.20;;;21.10;52.10;;;;;;4995465;28;20050;-57
2022/04/25 12:36:25;;;;;;;3.83;2.30;;;21.10;52.10;;;;;;4994769;28;20486;-57
2022/04/25 12:38:54;;;;;;;4.93;2.50;;;21.10;52.10;;;;;;4995557;28;20125;-57
2022/04/25 12:41:33;;;;;;;4.57;2.70;;;21.10;52.90;;;;;;4995435;28;20421;-57
2022/04/25 12:44:00;;;;;;;3.83;2.03;;;21.00;52.10;;;;;;4994695;28;20121;-56
2022/04/25 12:46:55;;;;;;;4.88;2.40;;;21.00;52.10;;;;;;4995508;28;20051;-57
2022/04/25 12:49:47;;;;;;;3.47;2.17;;;21.00;52.00;;;;;;4994769;28;20046;-56
2022/04/25 12:52:13;;;;;;;4.78;2.30;;;21.00;52.10;;;;;;4995613;28;20467;-56
2022/04/25 12:54:42;;;;;;;5.55;2.53;;;21.00;52.10;;;;;;4995351;28;20053;-57
2022/04/25 12:57:17;;;;;;;3.38;2.28;;;21.00;52.10;;;;;;4994490;28;20085;-57
2022/04/25 12:59:53;;;;;;;3.55;2.05;;;21.00;52.20;;;;;;4995195;28;20042;-57
2022/04/25 13:02:20;;;;;;;4.75;2.03;;;21.00;52.10;;;;;;4993837;28;20058;-56
2022/04/25 13:04:59;;;;;;;3.55;2.13;;;21.00;52.10;;;;;;4994054;28;20097;-56
2022/04/25 13:07:37;;;;;;;4.22;2.20;;;21.00;52.10;;;;;;4995060;28;20084;-56
2022/04/25 13:10:06;;;;;;;;;;;21.00;52.10;;;;;;4994558;28;20053;-56
2022/04/25 13:12:33;;;;;;;5.38;2.50;;;21.00;52.10;;;;;;4995195;28;19929;-56
2022/04/25 13:14:59;;;;;;;4.03;2.58;;;20.90;52.10;;;;;;4994869;28;20053;-56
2022/04/25 13:17:25;;;;;;;3.67;2.30;;;21.00;52.20;;;;;;4994245;28;20073;-56
2022/04/25 13:19:51;;;;;;;3.47;2.25;;;21.00;52.20;;;;;;4994021;28;20054;-56
2022/04/25 13:22:17;;;;;;;4.50;2.25;;;21.00;52.20;;;;;;4994634;28;20146;-56
2022/04/25 13:24:43;;;;;;;3.63;2.42;;;21.00;52.20;;;;;;4992577;28;20229;-56
2022/04/25 13:27:09;;;;;;;4.47;2.10;;;20.90;52.20;;;;;;4994708;28;20088;-56